Time;durP1;ratioP1;P1;durP2;ratioP2;P2;SDS_P1;SDS_P2;PMS_P1;PMS_P2;Temp;Humidity;BMP_temperature;BMP_pressure;BME280_temperature;BME280_humidity;BME280_pressure;Samples;Min_cycle;Max_cycle;Signal;HPM_P1;HPM_P2
2023/07/26 00:00:14;;;;;;;9.18;2.25;;;14.00;99.90;;;;;;6186261;23;20017;-76
2023/07/26 00:02:39;;;;;;;8.68;1.95;;;14.10;99.90;;;;;;6159552;23;20025;-75
2023/07/26 00:05:05;;;;;;;10.40;1.63;;;14.10;99.90;;;;;;6159650;23;20040;-76
2023/07/26 00:07:31;;;;;;;7.40;1.90;;;14.00;99.90;;;;;;6159510;23;20044;-75
2023/07/26 00:09:56;;;;;;;10.18;1.80;;;13.90;99.90;;;;;;6159518;23;20024;-75
2023/07/26 00:12:22;;;;;;;8.52;2.00;;;13.90;99.90;;;;;;6159587;23;20029;-75
2023/07/26 00:14:48;;;;;;;8.73;1.77;;;13.80;99.90;;;;;;6159528;23;20028;-76
2023/07/26 00:17:13;;;;;;;4.85;1.80;;;13.70;99.90;;;;;;6159540;23;20025;-76
2023/07/26 00:19:42;;;;;;;9.05;2.05;;;13.60;99.90;;;;;;6159643;23;20017;-75
2023/07/26 00:22:08;;;;;;;7.47;2.17;;;13.60;99.90;;;;;;6159483;23;20441;-75
2023/07/26 00:24:34;;;;;;;7.38;1.98;;;13.50;99.90;;;;;;6159414;23;20023;-76
2023/07/26 00:26:59;;;;;;;9.60;2.33;;;13.60;99.90;;;;;;6159094;23;20019;-75
2023/07/26 00:29:26;;;;;;;6.60;2.15;;;13.60;99.90;;;;;;6159472;23;20025;-75
2023/07/26 00:31:52;;;;;;;6.18;1.83;;;13.70;99.90;;;;;;6185813;23;20029;-76
2023/07/26 00:34:17;;;;;;;6.88;2.08;;;13.70;99.90;;;;;;6159464;23;20028;-75
2023/07/26 00:36:43;;;;;;;9.20;2.13;;;13.80;99.90;;;;;;6159315;23;20021;-76
2023/07/26 00:39:09;;;;;;;10.82;2.45;;;13.80;99.90;;;;;;6159483;23;20020;-76
2023/07/26 00:41:34;;;;;;;11.10;2.38;;;13.90;99.90;;;;;;6185764;23;20052;-76
2023/07/26 00:44:00;;;;;;;15.77;2.53;;;13.90;99.90;;;;;;6185872;23;20098;-76
2023/07/26 00:46:26;;;;;;;5.80;2.00;;;13.90;99.90;;;;;;6159519;23;20115;-75
2023/07/26 00:48:52;;;;;;;9.02;1.83;;;13.90;99.90;;;;;;6159455;23;20019;-75
2023/07/26 00:51:20;;;;;;;11.45;2.80;;;13.80;99.90;;;;;;6159498;23;20064;-75
2023/07/26 00:53:46;;;;;;;6.72;2.60;;;13.80;99.90;;;;;;6159493;23;20020;-75
2023/07/26 00:56:12;;;;;;;7.57;1.70;;;13.80;99.90;;;;;;6159420;23;20021;-75
2023/07/26 00:58:39;;;;;;;9.60;2.38;;;13.80;99.90;;;;;;6159471;23;20017;-75
2023/07/26 01:01:05;;;;;;;7.80;1.83;;;13.80;99.90;;;;;;6159587;23;20025;-75
2023/07/26 01:03:31;;;;;;;7.80;2.30;;;13.80;99.90;;;;;;6160937;23;20017;-75
2023/07/26 01:06:03;;;;;;;7.93;1.85;;;13.80;99.90;;;;;;6161052;23;20040;-75
2023/07/26 01:09:00;;;;;;;6.55;2.08;;;13.80;99.90;;;;;;6161197;23;20013;-75
2023/07/26 01:11:40;;;;;;;12.60;2.53;;;13.80;99.90;;;;;;6161015;23;20461;-76
2023/07/26 01:14:16;;;;;;;7.25;1.98;;;13.90;99.90;;;;;;6161077;23;20021;-75
2023/07/26 01:16:46;;;;;;;7.43;2.10;;;13.90;99.90;;;;;;6161055;23;20079;-75
2023/07/26 01:19:11;;;;;;;5.65;2.22;;;13.90;99.90;;;;;;6161046;23;20099;-75
2023/07/26 01:21:37;;;;;;;9.27;2.13;;;13.90;99.90;;;;;;6160978;23;20025;-75
2023/07/26 01:24:03;;;;;;;6.20;2.13;;;13.90;99.90;;;;;;6160818;23;20532;-76
2023/07/26 01:26:29;;;;;;;4.70;1.90;;;13.90;99.90;;;;;;6160917;23;20449;-75
2023/07/26 01:28:55;;;;;;;7.30;2.47;;;13.90;99.90;;;;;;6160662;23;20021;-75
2023/07/26 01:31:24;;;;;;;5.60;1.83;;;13.80;99.90;;;;;;6160767;23;20021;-75
2023/07/26 01:33:52;;;;;;;11.32;2.65;;;13.80;99.90;;;;;;6160885;23;20025;-75
2023/07/26 01:36:22;;;;;;;6.30;2.25;;;13.80;99.90;;;;;;6160767;23;20088;-75
2023/07/26 01:38:49;;;;;;;8.02;2.35;;;13.80;99.90;;;;;;6187436;23;20024;-75
2023/07/26 01:41:17;;;;;;;10.02;2.75;;;13.70;99.90;;;;;;6160865;23;20021;-75
2023/07/26 01:43:44;;;;;;;7.68;2.42;;;13.70;99.90;;;;;;6160771;23;20067;-75
2023/07/26 01:46:13;;;;;;;10.65;2.50;;;13.60;99.90;;;;;;6187374;23;20017;-75
2023/07/26 01:48:39;;;;;;;7.43;2.30;;;13.60;99.90;;;;;;6160704;23;20064;-75
2023/07/26 01:51:05;;;;;;;9.70;2.20;;;13.60;99.90;;;;;;6160683;23;20017;-75
2023/07/26 01:53:32;;;;;;;8.20;2.20;;;13.60;99.90;;;;;;6160601;23;20017;-75
2023/07/26 01:55:57;;;;;;;7.65;2.42;;;13.60;99.90;;;;;;6160710;23;20059;-75
2023/07/26 01:58:23;;;;;;;6.93;2.70;;;13.60;99.90;;;;;;6160522;23;20056;-75
2023/07/26 02:00:49;;;;;;;8.98;2.20;;;13.60;99.90;;;;;;6160710;23;20375;-75
2023/07/26 02:03:15;;;;;;;7.43;2.00;;;13.50;99.90;;;;;;6160569;23;20021;-75
2023/07/26 02:05:45;;;;;;;7.95;2.33;;;13.50;99.90;;;;;;6160611;23;20013;-75
2023/07/26 02:08:11;;;;;;;8.48;2.80;;;13.50;99.90;;;;;;6160565;23;20013;-76
2023/07/26 02:10:37;;;;;;;9.52;2.15;;;13.40;99.90;;;;;;6160538;23;20026;-75
2023/07/26 02:13:03;;;;;;;5.78;2.08;;;13.40;99.90;;;;;;6159973;23;20345;-75
2023/07/26 02:15:29;;;;;;;7.75;2.67;;;13.40;99.90;;;;;;6160568;23;20013;-75
2023/07/26 02:17:54;;;;;;;7.60;2.40;;;13.40;99.90;;;;;;6160249;23;20100;-75
2023/07/26 02:20:20;;;;;;;6.10;2.03;;;13.40;99.90;;;;;;6160552;23;20024;-75
2023/07/26 02:22:46;;;;;;;8.15;2.35;;;13.40;99.90;;;;;;6186753;23;20021;-75
2023/07/26 02:25:11;;;;;;;6.97;2.13;;;13.30;99.90;;;;;;6160426;23;20331;-75
2023/07/26 02:27:38;;;;;;;4.88;1.77;;;13.30;99.90;;;;;;6160102;23;20025;-75
2023/07/26 02:30:04;;;;;;;5.18;2.17;;;13.30;99.90;;;;;;6160339;23;20386;-75
2023/07/26 02:32:30;;;;;;;5.55;1.98;;;13.20;99.90;;;;;;6160223;23;20024;-75
2023/07/26 02:34:56;;;;;;;9.32;2.00;;;13.20;99.90;;;;;;6160315;23;20045;-75
2023/07/26 02:37:22;;;;;;;5.85;1.95;;;13.20;99.90;;;;;;6160070;23;20331;-75
2023/07/26 02:39:48;;;;;;;6.22;2.00;;;13.20;99.90;;;;;;6160227;23;20020;-75
2023/07/26 02:42:14;;;;;;;7.50;1.98;;;13.10;99.90;;;;;;6160233;23;20020;-75
2023/07/26 02:44:40;;;;;;;6.95;2.25;;;13.10;99.90;;;;;;6160357;23;20091;-75
2023/07/26 02:47:05;;;;;;;9.93;1.70;;;13.20;99.90;;;;;;6160251;23;20013;-75
2023/07/26 02:49:31;;;;;;;7.18;2.10;;;13.10;99.90;;;;;;6159997;23;20017;-75
2023/07/26 02:52:00;;;;;;;4.18;1.67;;;13.20;99.90;;;;;;6160138;23;20008;-75
2023/07/26 02:54:26;;;;;;;7.95;1.90;;;13.20;99.90;;;;;;6160128;23;20013;-75
2023/07/26 02:56:52;;;;;;;7.85;1.80;;;13.20;99.90;;;;;;6160045;23;20047;-75
2023/07/26 02:59:18;;;;;;;5.20;1.67;;;13.20;99.90;;;;;;6186805;23;20013;-75
2023/07/26 03:01:44;;;;;;;7.15;2.55;;;13.20;99.90;;;;;;6160091;23;20024;-75
2023/07/26 03:04:11;;;;;;;4.80;1.80;;;13.20;99.90;;;;;;6186713;23;20017;-75
2023/07/26 03:06:37;;;;;;;4.00;1.67;;;13.30;99.90;;;;;;6159991;23;20111;-75
2023/07/26 03:09:03;;;;;;;5.45;2.08;;;13.30;99.90;;;;;;6159999;23;20437;-74
2023/07/26 03:11:28;;;;;;;7.95;2.08;;;13.30;99.90;;;;;;6159937;23;20095;-75
2023/07/26 03:13:55;;;;;;;7.78;2.05;;;13.30;99.90;;;;;;6186254;23;20075;-75
2023/07/26 03:16:21;;;;;;;7.75;2.75;;;13.30;99.90;;;;;;6186190;23;20456;-75
2023/07/26 03:18:47;;;;;;;9.77;2.08;;;13.20;99.90;;;;;;6186527;23;20021;-75
2023/07/26 03:21:13;;;;;;;10.18;2.28;;;13.20;99.90;;;;;;6159883;23;20028;-75
2023/07/26 03:23:39;;;;;;;7.78;2.47;;;13.20;99.90;;;;;;6159758;23;20025;-75
2023/07/26 03:26:04;;;;;;;8.68;2.50;;;13.20;99.90;;;;;;6159718;23;20036;-75
2023/07/26 03:28:31;;;;;;;9.85;2.33;;;13.20;99.90;;;;;;6186069;23;20337;-75
2023/07/26 03:30:57;;;;;;;10.68;2.78;;;13.20;99.90;;;;;;6159835;23;20056;-74
2023/07/26 03:33:23;;;;;;;13.15;2.55;;;13.20;99.90;;;;;;6159644;23;20396;-74
2023/07/26 03:35:49;;;;;;;8.75;2.40;;;13.20;99.90;;;;;;6159799;23;20017;-75
2023/07/26 03:38:15;;;;;;;9.63;2.67;;;13.10;99.90;;;;;;6159363;23;20453;-76
2023/07/26 03:40:40;;;;;;;9.60;2.35;;;13.10;99.90;;;;;;6159374;23;20441;-75
2023/07/26 03:43:07;;;;;;;11.70;2.60;;;13.10;99.90;;;;;;6185875;23;20021;-75
2023/07/26 03:45:33;;;;;;;11.50;2.30;;;13.10;99.90;;;;;;6158810;23;20040;-75
2023/07/26 03:47:59;;;;;;;10.90;2.55;;;13.10;99.90;;;;;;6158084;23;20330;-75
2023/07/26 03:50:26;;;;;;;7.38;2.13;;;13.10;99.90;;;;;;6159590;23;20019;-75
2023/07/26 03:52:51;;;;;;;9.32;2.53;;;13.00;99.90;;;;;;6185870;23;20024;-75
2023/07/26 03:55:17;;;;;;;11.85;2.47;;;13.00;99.90;;;;;;6159480;23;20406;-75
2023/07/26 03:57:43;;;;;;;14.63;2.65;;;13.00;99.90;;;;;;6159397;23;20095;-75
2023/07/26 04:00:09;;;;;;;10.98;2.08;;;13.00;99.90;;;;;;6159520;23;20139;-75
2023/07/26 04:02:35;;;;;;;9.68;2.20;;;13.00;99.90;;;;;;6159505;23;20025;-75
2023/07/26 04:05:01;;;;;;;8.85;2.38;;;13.00;99.90;;;;;;6159389;23;20020;-75
2023/07/26 04:07:27;;;;;;;6.63;2.58;;;13.00;99.90;;;;;;6186023;23;20017;-75
2023/07/26 04:09:53;;;;;;;6.60;2.42;;;13.00;99.90;;;;;;6159390;23;20096;-75
2023/07/26 04:12:18;;;;;;;8.48;2.60;;;13.00;99.90;;;;;;6159394;23;20059;-75
2023/07/26 04:14:44;;;;;;;8.55;2.42;;;13.00;99.90;;;;;;6159416;23;20441;-75
2023/07/26 04:17:13;;;;;;;9.88;2.35;;;13.00;99.90;;;;;;6159324;23;20029;-75
2023/07/26 04:19:38;;;;;;;6.70;2.08;;;13.00;99.90;;;;;;6185998;23;20020;-75
2023/07/26 04:22:04;;;;;;;9.38;2.10;;;12.90;99.90;;;;;;6159427;23;20017;-75
2023/07/26 04:24:30;;;;;;;5.15;2.25;;;13.00;99.90;;;;;;6159439;23;20051;-75
2023/07/26 04:26:56;;;;;;;7.38;1.80;;;12.90;99.90;;;;;;6185806;23;20020;-75
2023/07/26 04:29:25;;;;;;;5.25;1.85;;;12.90;99.90;;;;;;6159849;23;20523;-75
2023/07/26 04:31:51;;;;;;;5.85;1.92;;;12.90;99.90;;;;;;6159261;23;20027;-75
2023/07/26 04:34:16;;;;;;;7.30;2.67;;;12.90;99.90;;;;;;6159401;23;20096;-75
2023/07/26 04:36:42;;;;;;;10.38;2.42;;;13.00;99.90;;;;;;6186628;23;20036;-75
2023/07/26 04:39:11;;;;;;;6.18;2.00;;;12.90;99.90;;;;;;6161250;23;20088;-75
2023/07/26 04:41:36;;;;;;;8.50;2.03;;;13.00;99.90;;;;;;6161299;23;20023;-75
2023/07/26 04:44:02;;;;;;;3.90;1.63;;;13.00;99.90;;;;;;6161216;23;20056;-75
2023/07/26 04:46:28;;;;;;;8.13;2.03;;;13.10;99.90;;;;;;6161255;23;20480;-76
2023/07/26 04:48:56;;;;;;;5.93;2.20;;;13.10;99.90;;;;;;6185878;23;20092;-75
2023/07/26 04:51:23;;;;;;;4.45;1.98;;;13.10;99.90;;;;;;6161424;23;20404;-75
2023/07/26 04:53:49;;;;;;;6.10;2.63;;;13.10;99.90;;;;;;6187621;23;20021;-76
2023/07/26 04:56:15;;;;;;;8.07;2.13;;;13.10;99.90;;;;;;6161165;23;20319;-75
2023/07/26 04:58:41;;;;;;;5.00;1.90;;;13.20;99.90;;;;;;6161254;23;20024;-76
2023/07/26 05:01:07;;;;;;;7.25;2.35;;;13.30;99.90;;;;;;6187448;23;20045;-75
2023/07/26 05:03:34;;;;;;;6.45;1.95;;;13.30;99.90;;;;;;6187667;23;20017;-75
2023/07/26 05:06:00;;;;;;;9.43;2.70;;;13.40;99.90;;;;;;6161113;23;20020;-75
2023/07/26 05:08:33;;;;;;;9.68;2.42;;;13.40;99.90;;;;;;6160988;23;20024;-75
2023/07/26 05:10:59;;;;;;;12.35;2.67;;;13.40;99.90;;;;;;6160903;23;20017;-78
2023/07/26 05:13:25;;;;;;;7.88;2.75;;;13.40;99.90;;;;;;6185727;23;20022;-77
2023/07/26 05:15:51;;;;;;;15.40;2.95;;;13.40;99.90;;;;;;6161163;23;20019;-77
2023/07/26 05:18:17;;;;;;;15.88;3.55;;;13.40;99.90;;;;;;6161118;23;20100;-78
2023/07/26 05:20:42;;;;;;;12.95;3.13;;;13.30;99.90;;;;;;6160901;23;20108;-78
2023/07/26 05:23:08;;;;;;;8.00;2.67;;;13.20;99.90;;;;;;6161119;23;20334;-76
2023/07/26 05:25:34;;;;;;;8.85;2.38;;;13.10;99.90;;;;;;6160863;23;20028;-76
2023/07/26 05:28:03;;;;;;;9.32;2.60;;;13.10;99.90;;;;;;6160575;23;20349;-77
2023/07/26 05:30:29;;;;;;;10.50;3.15;;;13.10;99.90;;;;;;6161165;23;20025;-77
2023/07/26 05:32:57;;;;;;;8.98;2.63;;;13.10;99.90;;;;;;6160899;23;20021;-77
2023/07/26 05:35:23;;;;;;;8.30;2.55;;;13.10;99.90;;;;;;6160700;23;20068;-77
2023/07/26 05:37:50;;;;;;;7.63;2.55;;;13.10;99.90;;;;;;6186993;23;20017;-77
2023/07/26 05:40:16;;;;;;;8.90;2.83;;;13.10;99.90;;;;;;6187060;23;20415;-77
2023/07/26 05:42:41;;;;;;;6.57;2.40;;;13.10;99.90;;;;;;6187390;23;20077;-76
2023/07/26 05:45:07;;;;;;;5.03;2.55;;;13.10;99.90;;;;;;6160764;23;20017;-76
2023/07/26 05:47:37;;;;;;;9.88;2.60;;;13.10;99.90;;;;;;6160846;23;20516;-76
2023/07/26 05:50:07;;;;;;;5.70;2.38;;;13.10;99.90;;;;;;6160738;23;20023;-76
2023/07/26 05:52:36;;;;;;;7.53;2.78;;;13.10;99.90;;;;;;6160613;23;20021;-77
2023/07/26 05:55:01;;;;;;;6.57;2.97;;;13.10;99.90;;;;;;6160522;23;20021;-76
2023/07/26 05:57:27;;;;;;;5.18;2.50;;;13.10;99.90;;;;;;6160446;23;20091;-76
2023/07/26 05:59:56;;;;;;;7.95;2.53;;;13.10;99.90;;;;;;6160487;23;20055;-75
2023/07/26 06:02:22;;;;;;;6.95;2.85;;;13.10;99.90;;;;;;6160390;23;20453;-77
2023/07/26 06:04:47;;;;;;;7.03;2.70;;;13.20;99.90;;;;;;6160670;23;20017;-76
2023/07/26 06:07:14;;;;;;;6.43;2.78;;;13.20;99.90;;;;;;6160350;23;20048;-76
2023/07/26 06:09:40;;;;;;;6.70;2.85;;;13.40;99.90;;;;;;6160485;23;20025;-77
2023/07/26 06:12:06;;;;;;;6.82;3.00;;;13.70;99.90;;;;;;6160395;23;20445;-76
2023/07/26 06:14:32;;;;;;;5.53;2.67;;;13.80;99.90;;;;;;6160387;23;20053;-76
2023/07/26 06:16:58;;;;;;;9.48;3.40;;;13.80;99.90;;;;;;6160374;23;20326;-77
2023/07/26 06:19:24;;;;;;;7.57;2.72;;;13.90;99.90;;;;;;6160211;23;20315;-76
2023/07/26 06:21:50;;;;;;;5.53;2.40;;;14.00;99.90;;;;;;6160377;23;20500;-76
2023/07/26 06:24:19;;;;;;;7.50;3.55;;;14.20;99.90;;;;;;6185647;23;20043;-77
2023/07/26 06:26:44;;;;;;;7.15;2.72;;;14.40;99.90;;;;;;6186453;23;20017;-76
2023/07/26 06:29:11;;;;;;;6.43;2.72;;;14.50;99.90;;;;;;6159161;23;20020;-76
2023/07/26 06:31:37;;;;;;;8.10;3.00;;;14.60;99.90;;;;;;6184970;23;20472;-76
2023/07/26 06:34:02;;;;;;;7.00;3.10;;;14.80;99.90;;;;;;6159651;23;20021;-76
2023/07/26 06:36:28;;;;;;;4.85;2.33;;;15.00;99.90;;;;;;6160105;23;20096;-76
2023/07/26 06:38:54;;;;;;;6.80;2.95;;;15.00;99.90;;;;;;6160172;23;20013;-80
2023/07/26 06:41:19;;;;;;;4.55;2.22;;;15.20;99.90;;;;;;6186699;23;20017;-75
2023/07/26 06:43:46;;;;;;;7.13;2.33;;;15.20;99.90;;;;;;6186698;23;20017;-76
2023/07/26 06:46:11;;;;;;;5.78;2.13;;;15.40;99.90;;;;;;6160426;23;20024;-76
2023/07/26 06:48:37;;;;;;;5.43;2.47;;;15.50;99.90;;;;;;6160105;23;20036;-75
2023/07/26 06:51:04;;;;;;;5.05;2.03;;;15.70;99.90;;;;;;6159577;23;20079;-75
2023/07/26 06:53:30;;;;;;;6.53;2.17;;;15.80;99.90;;;;;;6159829;23;20445;-75
2023/07/26 06:55:59;;;;;;;4.00;1.83;;;15.80;99.90;;;;;;6159223;23;20454;-82
2023/07/26 06:58:25;;;;;;;4.28;1.60;;;16.00;99.90;;;;;;6159542;23;20442;-76
2023/07/26 07:00:52;;;;;;;3.40;1.83;;;16.10;99.90;;;;;;6159551;23;20024;-74
2023/07/26 07:03:20;;;;;;;4.75;1.80;;;16.10;99.90;;;;;;6186308;23;20016;-75
2023/07/26 07:05:46;;;;;;;3.83;1.70;;;16.30;99.90;;;;;;6159639;23;20327;-75
2023/07/26 07:08:11;;;;;;;4.32;2.00;;;16.40;99.90;;;;;;6159562;23;20476;-75
2023/07/26 07:10:37;;;;;;;4.63;1.60;;;16.70;99.90;;;;;;6186269;23;20365;-76
2023/07/26 07:13:03;;;;;;;4.82;1.55;;;16.90;99.90;;;;;;6159532;23;20025;-76
2023/07/26 07:15:29;;;;;;;4.60;1.77;;;16.90;99.90;;;;;;6159597;23;20044;-76
2023/07/26 07:17:55;;;;;;;3.15;1.50;;;16.80;99.90;;;;;;6159367;23;20070;-75
2023/07/26 07:20:21;;;;;;;3.53;1.70;;;16.70;99.90;;;;;;6185806;23;20099;-77
2023/07/26 07:22:51;;;;;;;4.13;1.90;;;16.50;99.90;;;;;;6159629;23;20024;-76
2023/07/26 07:25:16;;;;;;;3.90;1.50;;;16.50;99.90;;;;;;6158592;23;20080;-76
2023/07/26 07:27:49;;;;;;;2.83;1.60;;;16.40;99.90;;;;;;6158498;23;20024;-76
2023/07/26 07:30:14;;;;;;;3.92;1.95;;;16.20;99.90;;;;;;6159366;23;20024;-75
2023/07/26 07:32:40;;;;;;;3.00;1.35;;;16.20;99.90;;;;;;6186173;23;20080;-76
2023/07/26 07:35:07;;;;;;;3.65;1.48;;;16.10;99.90;;;;;;6158451;23;20025;-77
2023/07/26 07:37:33;;;;;;;4.70;1.00;;;16.10;99.90;;;;;;6158931;23;20014;-76
2023/07/26 07:39:59;;;;;;;3.85;1.50;;;16.10;99.90;;;;;;6159324;23;20437;-77
2023/07/26 07:42:25;;;;;;;2.40;1.00;;;16.00;99.90;;;;;;6159401;23;20425;-77
2023/07/26 07:44:51;;;;;;;2.30;1.00;;;15.90;99.90;;;;;;6185738;23;20064;-76
2023/07/26 07:47:16;;;;;;;3.90;1.67;;;16.00;99.90;;;;;;6159352;23;20448;-77
2023/07/26 07:49:42;;;;;;;3.45;1.63;;;16.20;99.90;;;;;;6159223;23;20016;-76
2023/07/26 07:52:08;;;;;;;4.03;1.75;;;16.50;99.90;;;;;;6185734;23;20096;-76
2023/07/26 07:54:33;;;;;;;4.82;1.65;;;16.60;99.90;;;;;;6159068;23;20023;-77
2023/07/26 07:57:02;;;;;;;4.13;1.63;;;16.80;99.90;;;;;;6141247;23;20024;-77
2023/07/26 07:59:28;;;;;;;3.55;1.70;;;17.10;99.90;;;;;;6145413;23;20025;-76
2023/07/26 08:01:53;;;;;;;2.78;1.30;;;17.00;99.90;;;;;;6159336;23;20091;-76
2023/07/26 08:04:20;;;;;;;4.38;1.73;;;16.80;99.90;;;;;;6159329;23;20060;-76
2023/07/26 08:06:46;;;;;;;3.95;1.60;;;16.50;99.90;;;;;;6159251;23;20024;-77
2023/07/26 08:09:12;;;;;;;5.45;1.98;;;16.60;99.90;;;;;;6159329;23;20092;-76
2023/07/26 08:11:40;;;;;;;2.35;1.27;;;16.90;99.90;;;;;;6160862;23;20017;-76
2023/07/26 08:14:06;;;;;;;3.70;1.75;;;17.10;99.90;;;;;;6186929;23;20013;-76
2023/07/26 08:16:31;;;;;;;3.38;1.27;;;17.20;99.90;;;;;;6161184;23;20048;-76
2023/07/26 08:19:01;;;;;;;3.33;1.60;;;17.30;99.90;;;;;;6161243;23;20017;-76
2023/07/26 08:21:44;;;;;;;2.65;1.65;;;17.30;99.90;;;;;;6187464;23;20025;-77
2023/07/26 08:24:10;;;;;;;3.70;1.77;;;17.30;99.90;;;;;;6161122;23;20009;-76
2023/07/26 08:26:36;;;;;;;5.15;1.80;;;17.10;99.90;;;;;;6161062;23;20344;-77
2023/07/26 08:29:02;;;;;;;4.22;1.95;;;16.90;99.90;;;;;;6161094;23;20457;-76
2023/07/26 08:31:29;;;;;;;3.97;1.75;;;16.80;99.90;;;;;;6187435;23;20059;-77
2023/07/26 08:33:55;;;;;;;3.38;1.58;;;16.60;99.90;;;;;;6161158;23;20088;-76
2023/07/26 08:36:21;;;;;;;4.20;1.63;;;16.50;99.90;;;;;;6187644;23;20531;-77
2023/07/26 08:38:46;;;;;;;4.15;2.10;;;16.40;99.90;;;;;;6160942;23;20031;-78
2023/07/26 08:41:12;;;;;;;4.88;1.80;;;16.30;99.90;;;;;;6160371;23;20024;-77
2023/07/26 08:43:40;;;;;;;5.85;1.92;;;16.40;99.90;;;;;;6160604;23;20020;-78
2023/07/26 08:46:08;;;;;;;3.63;1.85;;;16.50;99.90;;;;;;6187318;23;20457;-77
2023/07/26 08:48:34;;;;;;;5.60;2.10;;;16.80;99.90;;;;;;6187246;23;20020;-77
2023/07/26 08:51:00;;;;;;;3.35;1.70;;;16.80;99.90;;;;;;6160747;23;20048;-77
2023/07/26 08:53:30;;;;;;;4.38;1.80;;;16.80;99.90;;;;;;6160819;23;20028;-76
2023/07/26 08:55:56;;;;;;;4.55;1.60;;;17.00;99.90;;;;;;6187521;23;20017;-77
2023/07/26 08:58:21;;;;;;;4.03;1.90;;;17.20;99.90;;;;;;6160800;23;20031;-78
2023/07/26 09:00:47;;;;;;;2.75;1.60;;;17.20;99.90;;;;;;6185177;23;20017;-77
2023/07/26 09:03:13;;;;;;;4.00;2.00;;;17.20;99.90;;;;;;6157972;23;20021;-76
2023/07/26 09:05:39;;;;;;;6.38;2.42;;;17.10;99.90;;;;;;6184841;23;20029;-77
2023/07/26 09:08:05;;;;;;;5.40;2.13;;;16.90;99.90;;;;;;6159152;23;20060;-76
2023/07/26 09:10:31;;;;;;;5.63;2.30;;;17.00;99.90;;;;;;6160174;23;20108;-76
2023/07/26 09:13:11;;;;;;;4.78;2.60;;;17.10;99.90;;;;;;6160780;23;20487;-76
2023/07/26 09:15:38;;;;;;;6.28;2.22;;;17.40;99.90;;;;;;6187177;23;20028;-76
2023/07/26 09:18:05;;;;;;;5.38;2.55;;;17.40;99.90;;;;;;6160245;23;20030;-75
2023/07/26 09:20:32;;;;;;;4.45;2.22;;;17.50;99.90;;;;;;6186199;23;20477;-76
2023/07/26 09:23:03;;;;;;;6.78;2.15;;;17.80;99.90;;;;;;6160369;23;20009;-76
2023/07/26 09:25:37;;;;;;;5.10;2.00;;;17.90;99.90;;;;;;6160725;23;20430;-76
2023/07/26 09:28:08;;;;;;;5.97;2.75;;;18.00;99.90;;;;;;6160279;23;20021;-76
2023/07/26 09:30:36;;;;;;;7.60;2.55;;;18.20;99.90;;;;;;6187789;23;20021;-76
2023/07/26 09:33:02;;;;;;;7.55;2.50;;;18.40;99.90;;;;;;6160690;23;20013;-76
2023/07/26 09:35:31;;;;;;;5.15;2.20;;;18.50;99.90;;;;;;6160584;23;20337;-76
2023/07/26 09:37:58;;;;;;;5.25;2.80;;;18.30;99.90;;;;;;6160337;23;20020;-76
2023/07/26 09:40:33;;;;;;;6.45;2.30;;;18.10;99.90;;;;;;6160576;23;20322;-76
2023/07/26 09:42:59;;;;;;;4.32;1.80;;;18.00;99.90;;;;;;6160443;23;20020;-76
2023/07/26 09:45:25;;;;;;;3.15;1.70;;;17.80;99.90;;;;;;6160582;23;20013;-76
2023/07/26 09:47:51;;;;;;;4.40;1.95;;;17.60;99.90;;;;;;6160485;23;20021;-76
2023/07/26 09:50:45;;;;;;;6.68;2.20;;;17.60;99.90;;;;;;6160393;23;20020;-75
2023/07/26 09:53:11;;;;;;;9.43;2.38;;;17.70;99.90;;;;;;6160295;23;20429;-75
2023/07/26 09:55:37;;;;;;;5.72;2.17;;;17.90;99.90;;;;;;6160411;23;20067;-78
2023/07/26 09:58:04;;;;;;;8.07;2.38;;;17.90;99.90;;;;;;6186734;23;20024;-77
2023/07/26 10:00:31;;;;;;;6.55;2.65;;;17.70;99.90;;;;;;6160452;23;20092;-76
2023/07/26 10:03:03;;;;;;;5.32;2.38;;;17.90;99.90;;;;;;6159555;23;20066;-78
2023/07/26 10:05:35;;;;;;;10.27;1.60;;;17.70;99.90;;;;;;6159431;23;20024;-78
2023/07/26 10:08:01;;;;;;;8.37;1.63;;;17.50;99.90;;;;;;6159743;23;20060;-76
2023/07/26 10:10:28;;;;;;;11.23;1.75;;;17.10;99.90;;;;;;6159186;23;20025;-75
2023/07/26 10:12:57;;;;;;;10.50;1.77;;;16.70;99.90;;;;;;6160055;23;20083;-76
2023/07/26 10:15:26;;;;;;;10.45;1.75;;;16.20;99.90;;;;;;6158751;23;20017;-79
2023/07/26 10:17:52;;;;;;;11.05;1.77;;;15.80;99.90;;;;;;6159897;23;20096;-76
2023/07/26 10:20:21;;;;;;;9.98;1.33;;;15.70;99.90;;;;;;6159535;23;20013;-75
2023/07/26 10:22:48;;;;;;;12.27;1.98;;;15.80;99.90;;;;;;6159863;23;20143;-75
2023/07/26 10:25:14;;;;;;;7.78;1.40;;;16.00;99.90;;;;;;6159299;23;20028;-76
2023/07/26 10:27:43;;;;;;;4.30;1.23;;;16.20;99.90;;;;;;6159782;23;20017;-75
2023/07/26 10:30:11;;;;;;;3.45;0.82;;;16.30;99.90;;;;;;6159617;23;20021;-75
2023/07/26 10:32:49;;;;;;;2.08;0.73;;;16.40;99.90;;;;;;6159363;23;20056;-75
2023/07/26 10:35:27;;;;;;;3.00;0.82;;;16.50;99.90;;;;;;6159051;23;20056;-76
2023/07/26 10:37:57;;;;;;;5.80;1.20;;;16.70;99.90;;;;;;6159867;23;20472;-76
2023/07/26 10:40:34;;;;;;;4.82;0.90;;;16.70;99.90;;;;;;6159847;23;20385;-76
2023/07/26 10:43:21;;;;;;;3.10;0.50;;;16.70;99.90;;;;;;6158940;23;20017;-75
2023/07/26 10:45:54;;;;;;;2.92;0.50;;;16.90;99.90;;;;;;6159435;23;20013;-76
2023/07/26 10:48:27;;;;;;;2.33;0.40;;;16.90;99.90;;;;;;6159793;23;20467;-75
2023/07/26 10:50:59;;;;;;;0.75;0.32;;;17.00;99.90;;;;;;6159905;23;20426;-76
2023/07/26 10:53:37;;;;;;;2.85;0.50;;;17.20;99.90;;;;;;6159232;23;20028;-76
2023/07/26 10:56:30;;;;;;;1.63;0.70;;;17.40;99.90;;;;;;6185842;23;20021;-76
2023/07/26 10:59:05;;;;;;;3.83;0.77;;;17.50;99.90;;;;;;6158674;23;20021;-76
2023/07/26 11:01:44;;;;;;;4.68;1.10;;;17.60;99.90;;;;;;6159373;23;20017;-76
2023/07/26 11:04:15;;;;;;;4.03;1.08;;;17.70;99.90;;;;;;6159639;23;20028;-77
2023/07/26 11:07:01;;;;;;;2.85;0.95;;;17.80;99.90;;;;;;6159282;23;20381;-77
2023/07/26 11:09:33;;;;;;;4.90;1.10;;;18.00;99.90;;;;;;6159349;23;20020;-78
2023/07/26 11:12:03;;;;;;;3.92;0.90;;;18.10;99.90;;;;;;6159162;23;20013;-78
2023/07/26 11:14:31;;;;;;;2.35;0.93;;;18.20;99.90;;;;;;6159583;23;20017;-76
2023/07/26 11:16:59;;;;;;;4.03;1.00;;;18.30;99.90;;;;;;6159502;23;20024;-77
2023/07/26 11:19:27;;;;;;;3.00;1.13;;;18.30;99.90;;;;;;6159685;23;20068;-82
2023/07/26 11:22:05;;;;;;;6.45;1.35;;;18.10;99.90;;;;;;6159893;23;20013;-75
2023/07/26 11:24:31;;;;;;;3.58;1.15;;;18.30;99.90;;;;;;6186322;23;20016;-77
2023/07/26 11:27:07;;;;;;;4.57;1.33;;;18.40;99.90;;;;;;6159287;23;20075;-79
2023/07/26 11:29:34;;;;;;;3.95;1.50;;;18.50;99.90;;;;;;6159965;23;20100;-81
2023/07/26 11:32:01;;;;;;;3.63;1.55;;;18.60;99.90;;;;;;6159352;23;20093;-79
2023/07/26 11:34:29;;;;;;;6.85;1.50;;;18.60;99.90;;;;;;6186164;23;20024;-79
2023/07/26 11:37:12;;;;;;;4.43;1.55;;;18.60;99.90;;;;;;6185584;23;20333;-80
2023/07/26 11:39:37;;;;;;;4.97;1.60;;;18.60;99.90;;;;;;6185818;23;20453;-80
2023/07/26 11:42:04;;;;;;;5.47;1.50;;;18.60;99.90;;;;;;6159268;23;20017;-79
2023/07/26 11:44:31;;;;;;;5.38;1.48;;;18.70;99.90;;;;;;6159481;23;20052;-79
2023/07/26 11:47:00;;;;;;;8.57;1.80;;;18.70;99.90;;;;;;6159650;23;20025;-80
2023/07/26 11:49:31;;;;;;;4.65;1.52;;;18.70;99.90;;;;;;6159435;23;20017;-79
2023/07/26 11:51:57;;;;;;;4.28;1.48;;;18.80;99.90;;;;;;6159316;23;20017;-76
2023/07/26 11:54:23;;;;;;;4.43;1.35;;;18.90;99.90;;;;;;6159394;23;20013;-77
2023/07/26 11:56:49;;;;;;;6.88;1.77;;;19.00;99.90;;;;;;6159284;23;20013;-77
2023/07/26 11:59:16;;;;;;;4.93;1.60;;;19.20;99.90;;;;;;6159287;23;20044;-76
2023/07/26 12:01:42;;;;;;;6.05;1.80;;;19.40;99.90;;;;;;6159298;23;20528;-78
2023/07/26 12:04:16;;;;;;;8.80;2.05;;;19.40;99.90;;;;;;6159236;23;20021;-78
2023/07/26 12:06:44;;;;;;;7.57;1.80;;;19.40;99.90;;;;;;6159180;23;20032;-77
2023/07/26 12:09:10;;;;;;;3.50;1.50;;;19.50;99.90;;;;;;6159255;23;20021;-78
2023/07/26 12:11:57;;;;;;;4.13;1.83;;;19.60;99.90;;;;;;6159317;23;20020;-77
2023/07/26 12:14:23;;;;;;;5.90;1.73;;;19.70;99.90;;;;;;6159366;23;20384;-77
2023/07/26 12:16:51;;;;;;;3.97;1.50;;;19.80;99.90;;;;;;6159161;23;20495;-77
2023/07/26 12:19:45;;;;;;;4.20;1.50;;;19.70;99.90;;;;;;6185908;23;20068;-77
2023/07/26 12:22:11;;;;;;;4.95;1.15;;;19.80;99.90;;;;;;6185923;23;20013;-76
2023/07/26 12:24:53;;;;;;;4.57;1.60;;;19.80;99.90;;;;;;6159114;23;20114;-78
2023/07/26 12:27:20;;;;;;;6.32;1.35;;;20.10;99.90;;;;;;6159017;23;20048;-77
2023/07/26 12:29:45;;;;;;;6.07;1.60;;;20.00;99.90;;;;;;6185330;23;20528;-77
2023/07/26 12:32:15;;;;;;;8.50;1.65;;;19.90;99.90;;;;;;6159312;23;20051;-77
2023/07/26 12:34:42;;;;;;;7.15;1.80;;;19.90;99.90;;;;;;6159115;23;20028;-78
2023/07/26 12:37:09;;;;;;;5.50;1.38;;;20.10;99.90;;;;;;6159192;23;20055;-77
2023/07/26 12:39:37;;;;;;;5.43;1.63;;;19.90;99.90;;;;;;6185790;23;20040;-77
2023/07/26 12:42:08;;;;;;;6.10;1.65;;;19.80;99.90;;;;;;6158982;23;20017;-77
2023/07/26 12:44:34;;;;;;;4.63;1.45;;;19.80;99.90;;;;;;6159042;23;20021;-77
2023/07/26 12:47:00;;;;;;;7.25;1.90;;;20.00;99.90;;;;;;6159185;23;20152;-77